createdAt,value
2018-04-30T00:01:15.397Z,93255.34
2018-04-30T00:03:43.771Z,93248.72
2018-04-30T00:06:12.298Z,93248.60
2018-04-30T00:08:40.697Z,93235.25
2018-04-30T00:11:09.080Z,93224.84
2018-04-30T00:13:37.491Z,93222.70
2018-04-30T00:16:05.976Z,93215.94
2018-04-30T00:18:34.377Z,93212.87
2018-04-30T00:21:02.756Z,93213.66
2018-04-30T00:23:31.135Z,93211.55
2018-04-30T00:25:59.506Z,93205.41
2018-04-30T00:28:27.945Z,93210.52
2018-04-30T00:30:56.312Z,93202.66
2018-04-30T00:33:24.733Z,93203.62
2018-04-30T00:35:53.126Z,93191.84
2018-04-30T00:38:21.524Z,93197.27
2018-04-30T00:40:49.967Z,93186.95
2018-04-30T00:43:18.389Z,93181.34
2018-04-30T00:45:46.787Z,93175.91
2018-04-30T00:48:15.277Z,93177.56
2018-04-30T00:50:43.675Z,93166.27
2018-04-30T00:53:12.037Z,93156.38
2018-04-30T00:55:40.422Z,93150.69
2018-04-30T00:58:08.804Z,93153.34
2018-04-30T01:00:37.208Z,93153.16
2018-04-30T01:03:05.680Z,93146.80
2018-04-30T01:05:34.045Z,93151.39
2018-04-30T01:08:02.501Z,93152.15
2018-04-30T01:10:30.873Z,93155.98
2018-04-30T01:12:59.253Z,93149.44
2018-04-30T01:15:27.649Z,93157.22
2018-04-30T01:17:56.073Z,93157.96
2018-04-30T01:20:24.474Z,93153.23
2018-04-30T01:22:52.859Z,93158.93
2018-04-30T01:25:21.301Z,93164.05
2018-04-30T01:27:49.696Z,93162.73
2018-04-30T01:30:18.130Z,93157.39
2018-04-30T01:32:46.514Z,93149.14
2018-04-30T01:35:14.993Z,93152.96
2018-04-30T01:37:43.472Z,93140.30
2018-04-30T01:40:11.834Z,93144.33
2018-04-30T01:42:40.240Z,93143.95
2018-04-30T01:45:09.680Z,93146.36
2018-04-30T01:47:38.059Z,93146.28
2018-04-30T01:50:06.457Z,93143.50
2018-04-30T01:52:34.831Z,93139.19
2018-04-30T01:55:03.216Z,93142.11
2018-04-30T01:57:31.589Z,93134.65
2018-04-30T02:00:00.038Z,93130.48
2018-04-30T02:02:28.460Z,93122.52
2018-04-30T02:04:56.821Z,93121.08
2018-04-30T02:07:25.189Z,93117.57
2018-04-30T02:09:53.556Z,93129.78
2018-04-30T02:12:21.932Z,93125.31
2018-04-30T02:14:50.317Z,93122.45
2018-04-30T02:17:18.803Z,93120.94
2018-04-30T02:19:47.157Z,93114.25
2018-04-30T02:22:15.548Z,93119.76
2018-04-30T02:24:43.934Z,93114.59
2018-04-30T02:27:12.408Z,93110.73
2018-04-30T02:29:40.865Z,93108.91
2018-04-30T02:32:09.243Z,93111.95
2018-04-30T02:34:37.638Z,93102.31
2018-04-30T02:37:05.998Z,93100.75
2018-04-30T02:39:34.369Z,93096.19
2018-04-30T02:42:02.802Z,93105.03
2018-04-30T02:44:31.205Z,93098.15
2018-04-30T02:46:59.604Z,93110.07
2018-04-30T02:49:27.983Z,93117.02
2018-04-30T02:51:56.335Z,93120.47
2018-04-30T02:54:24.703Z,93112.75
2018-04-30T02:56:53.148Z,93113.59
2018-04-30T02:59:21.546Z,93108.03
2018-04-30T03:01:49.978Z,93108.42
2018-04-30T03:04:18.380Z,93106.56
2018-04-30T03:06:46.828Z,93109.65
2018-04-30T03:09:15.227Z,93112.17
2018-04-30T03:11:43.662Z,93109.20
2018-04-30T03:14:12.089Z,93107.02
2018-04-30T03:16:40.489Z,93105.22
2018-04-30T03:19:08.902Z,93119.06
2018-04-30T03:21:37.321Z,93103.20
2018-04-30T03:24:05.820Z,93111.91
2018-04-30T03:26:34.192Z,93120.20
2018-04-30T03:29:02.705Z,93125.08
2018-04-30T03:31:31.096Z,93135.89
2018-04-30T03:33:59.538Z,93133.98
2018-04-30T03:39:02.559Z,93133.31
2018-04-30T03:41:37.664Z,93126.84
2018-04-30T03:44:06.060Z,93143.52
2018-04-30T03:46:35.450Z,93152.25
2018-04-30T03:49:03.936Z,93154.09
2018-04-30T03:51:32.367Z,93159.36
2018-04-30T03:54:00.795Z,93152.23
2018-04-30T03:56:29.230Z,93143.83
2018-04-30T03:58:57.624Z,93147.55
2018-04-30T04:01:39.939Z,93146.03
2018-04-30T04:04:20.157Z,93168.48
2018-04-30T04:06:52.404Z,93170.00
2018-04-30T04:09:20.960Z,93158.13
2018-04-30T04:11:49.788Z,93168.35
2018-04-30T04:14:18.860Z,93170.59
2018-04-30T04:16:47.593Z,93172.21
2018-04-30T04:19:16.241Z,93183.55
2018-04-30T04:21:44.691Z,93180.99
2018-04-30T04:24:13.539Z,93191.91
2018-04-30T04:26:43.132Z,93200.22
2018-04-30T04:29:11.681Z,93198.30
2018-04-30T04:31:40.097Z,93200.28
2018-04-30T04:34:08.575Z,93207.95
2018-04-30T04:36:37.051Z,93205.33
2018-04-30T04:39:06.249Z,93216.52
2018-04-30T04:41:34.640Z,93221.81
2018-04-30T04:44:03.118Z,93230.39
2018-04-30T04:46:31.695Z,93231.55
2018-04-30T04:49:19.964Z,93221.77
2018-04-30T04:52:00.514Z,93231.88
2018-04-30T04:54:36.901Z,93245.14
2018-04-30T04:57:07.182Z,93241.33
2018-04-30T04:59:43.460Z,93241.39
2018-04-30T05:02:24.176Z,93253.16
2018-04-30T05:04:54.557Z,93240.94
2018-04-30T05:07:22.967Z,93247.44
2018-04-30T05:09:51.428Z,93260.67
2018-04-30T05:12:19.901Z,93243.84
2018-04-30T05:14:48.469Z,93254.30
2018-04-30T05:17:16.894Z,93254.33
2018-04-30T05:19:45.346Z,93251.84
2018-04-30T05:22:13.823Z,93263.41
2018-04-30T05:24:42.393Z,93256.08
2018-04-30T05:27:10.965Z,93246.47
2018-04-30T05:29:39.605Z,93263.59
2018-04-30T05:32:09.018Z,93267.61
2018-04-30T05:34:37.892Z,93277.81
2018-04-30T05:37:07.155Z,93281.46
2018-04-30T05:39:35.705Z,93282.77
2018-04-30T05:42:04.149Z,93289.77
2018-04-30T05:44:32.636Z,93293.87
2018-04-30T05:47:01.267Z,93291.56
2018-04-30T05:49:30.644Z,93306.16
2018-04-30T05:51:59.063Z,93305.03
2018-04-30T05:54:28.516Z,93306.59
2018-04-30T05:56:57.755Z,93316.89
2018-04-30T05:59:26.273Z,93317.95
2018-04-30T06:01:54.679Z,93323.00
2018-04-30T06:04:24.135Z,93326.36
2018-04-30T06:06:52.600Z,93328.62
2018-04-30T06:09:21.022Z,93334.38
2018-04-30T06:11:49.387Z,93329.57
2018-04-30T06:14:17.799Z,93333.38
2018-04-30T06:16:46.258Z,93340.11
2018-04-30T06:19:14.682Z,93347.61
2018-04-30T06:21:43.074Z,93356.54
2018-04-30T06:24:11.468Z,93353.25
2018-04-30T06:26:40.009Z,93356.75
2018-04-30T06:29:08.371Z,93358.45
2018-04-30T06:31:36.782Z,93364.80
2018-04-30T06:34:06.069Z,93372.59
2018-04-30T06:36:34.659Z,93374.64
2018-04-30T06:39:03.180Z,93376.36
2018-04-30T06:41:31.616Z,93375.09
2018-04-30T06:43:59.999Z,93363.49
2018-04-30T06:46:28.435Z,93364.62
2018-04-30T06:48:56.853Z,93368.96
2018-04-30T06:51:25.271Z,93370.45
2018-04-30T06:53:54.863Z,93351.62
2018-04-30T06:56:23.736Z,93357.00
2018-04-30T06:58:53.715Z,93366.09
2018-04-30T07:01:23.653Z,93378.31
2018-04-30T07:03:52.876Z,93372.21
2018-04-30T07:12:29.680Z,93382.50
2018-04-30T07:14:58.062Z,93388.43
2018-04-30T07:17:26.494Z,93395.39
2018-04-30T07:19:56.737Z,93398.47
2018-04-30T07:22:25.173Z,93408.11
2018-04-30T07:24:54.995Z,93413.91
2018-04-30T07:27:23.700Z,93412.55
2018-04-30T07:29:54.292Z,93410.98
2018-04-30T07:32:23.029Z,93416.64
2018-04-30T07:34:51.732Z,93426.72
2018-04-30T07:37:24.126Z,93421.61
2018-04-30T07:39:53.749Z,93434.91
2018-04-30T07:42:24.903Z,93436.42
2018-04-30T07:44:59.344Z,93422.38
2018-04-30T07:47:27.773Z,93433.28
2018-04-30T07:49:58.533Z,93426.89
2018-04-30T07:52:29.537Z,93434.20
2018-04-30T07:54:58.001Z,93433.77
2018-04-30T07:57:26.376Z,93440.45
2018-04-30T07:59:54.871Z,93440.28
2018-04-30T08:02:23.229Z,93456.30
2018-04-30T08:04:57.924Z,93460.48
2018-04-30T08:07:27.183Z,93457.13
2018-04-30T08:09:55.596Z,93465.95
2018-04-30T08:12:25.598Z,93477.27
2018-04-30T08:14:55.740Z,93486.43
2018-04-30T08:17:24.124Z,93496.05
2018-04-30T08:19:54.115Z,93494.98
2018-04-30T08:22:25.189Z,93505.49
2018-04-30T08:24:53.886Z,93513.69
2018-04-30T08:27:24.190Z,93503.94
2018-04-30T08:29:58.670Z,93503.42
2018-04-30T08:32:27.148Z,93500.43
2018-04-30T08:34:55.644Z,93494.13
2018-04-30T08:37:28.348Z,93488.84
2018-04-30T08:39:59.141Z,93483.59
2018-04-30T08:42:27.553Z,93468.79
2018-04-30T08:44:56.813Z,93453.31
2018-04-30T08:47:25.201Z,93455.27
2018-04-30T08:49:53.661Z,93468.56
2018-04-30T08:52:28.411Z,93472.78
2018-04-30T08:54:57.060Z,93469.24
2018-04-30T08:57:25.459Z,93464.17
2018-04-30T08:59:54.612Z,93457.67
2018-04-30T09:02:24.192Z,93455.66
2018-04-30T09:04:55.679Z,93429.64
2018-04-30T09:07:25.543Z,93427.84
2018-04-30T09:09:54.132Z,93446.48
2018-04-30T09:12:26.219Z,93462.83
2018-04-30T09:14:56.563Z,93492.34
2018-04-30T09:17:26.557Z,93516.38
2018-04-30T09:19:54.962Z,93526.85
2018-04-30T09:22:25.774Z,93519.53
2018-04-30T09:24:54.202Z,93512.30
2018-04-30T09:27:24.645Z,93510.08
2018-04-30T09:29:55.169Z,93509.77
2018-04-30T09:32:25.262Z,93526.19
2018-04-30T09:34:55.766Z,93539.54
2018-04-30T09:37:28.697Z,93545.02
2018-04-30T09:39:57.160Z,93543.11
2018-04-30T09:42:25.883Z,93546.41
2018-04-30T09:44:54.481Z,93542.56
2018-04-30T09:47:24.263Z,93539.13
2018-04-30T09:49:55.882Z,93540.65
2018-04-30T09:52:24.775Z,93549.45
2018-04-30T09:54:53.673Z,93540.77
2018-04-30T09:57:23.257Z,93533.76
2018-04-30T09:59:53.790Z,93520.34
2018-04-30T10:02:24.780Z,93512.39
2018-04-30T10:04:53.280Z,93504.63
2018-04-30T10:07:23.356Z,93502.70
2018-04-30T10:09:52.917Z,93500.88
2018-04-30T10:12:22.777Z,93498.07
2018-04-30T10:14:53.004Z,93505.58
2018-04-30T10:17:22.817Z,93484.96
2018-04-30T10:19:52.486Z,93486.57
2018-04-30T10:22:22.229Z,93500.23
2018-04-30T10:24:52.136Z,93497.23
2018-04-30T10:27:22.148Z,93495.98
2018-04-30T10:29:52.467Z,93497.53
2018-04-30T10:32:22.637Z,93491.41
2018-04-30T10:34:52.668Z,93496.66
2018-04-30T10:37:23.557Z,93507.81
2018-04-30T10:39:52.955Z,93511.84
2018-04-30T10:42:22.787Z,93496.56
2018-04-30T10:44:51.979Z,93515.02
2018-04-30T10:47:21.437Z,93515.77
2018-04-30T10:49:51.382Z,93522.19
2018-04-30T10:52:22.878Z,93512.44
2018-04-30T10:54:51.597Z,93534.67
2018-04-30T10:57:25.793Z,93533.70
2018-04-30T10:59:54.220Z,93537.13
2018-04-30T11:02:24.856Z,93538.81
2018-04-30T11:04:56.778Z,93539.39
2018-04-30T11:07:25.223Z,93541.54
2018-04-30T11:09:56.722Z,93549.30
2018-04-30T11:12:29.020Z,93551.45
2018-04-30T11:14:57.385Z,93552.78
2018-04-30T11:17:27.140Z,93551.66
2018-04-30T11:19:56.429Z,93553.86
2018-04-30T11:22:24.878Z,93567.15
2018-04-30T11:24:56.813Z,93560.05
2018-04-30T11:27:29.287Z,93563.27
2018-04-30T11:29:57.669Z,93573.05
2018-04-30T11:32:28.706Z,93563.72
2018-04-30T11:34:57.204Z,93558.44
2018-04-30T11:37:29.401Z,93565.22
2018-04-30T11:39:58.085Z,93574.02
2018-04-30T11:42:27.344Z,93571.70
2018-04-30T11:44:56.254Z,93565.77
2018-04-30T11:47:25.261Z,93563.94
2018-04-30T11:49:54.555Z,93564.78
2018-04-30T11:52:24.328Z,93576.94
2018-04-30T11:54:53.985Z,93564.75
2018-04-30T11:57:24.334Z,93586.36
2018-04-30T11:59:54.675Z,93581.88
2018-04-30T12:02:24.889Z,93570.81
2018-04-30T12:04:54.815Z,93578.46
2018-04-30T12:07:24.681Z,93579.39
2018-04-30T12:09:54.001Z,93585.48
2018-04-30T12:12:24.470Z,93607.48
2018-04-30T12:14:54.399Z,93581.03
2018-04-30T12:17:23.846Z,93594.75
2018-04-30T12:19:53.582Z,93586.03
2018-04-30T12:22:23.349Z,93578.88
2018-04-30T12:24:54.105Z,93576.22
2018-04-30T12:27:22.908Z,93581.52
2018-04-30T12:29:55.855Z,93594.61
2018-04-30T12:32:25.184Z,93581.78
2018-04-30T12:34:54.770Z,93590.41
2018-04-30T12:37:24.481Z,93602.56
2018-04-30T12:39:54.654Z,93602.28
2018-04-30T12:42:23.748Z,93605.42
2018-04-30T12:44:54.301Z,93601.47
2018-04-30T12:47:24.312Z,93607.23
2018-04-30T12:49:53.638Z,93610.88
2018-04-30T12:52:23.924Z,93591.22
2018-04-30T12:54:56.316Z,93582.06
2018-04-30T12:57:24.982Z,93589.38
2018-04-30T12:59:54.203Z,93584.98
2018-04-30T13:02:24.866Z,93587.58
2018-04-30T13:04:54.818Z,93590.63
2018-04-30T13:07:25.647Z,93593.86
2018-04-30T13:09:55.238Z,93587.86
2018-04-30T13:12:25.304Z,93586.41
2018-04-30T13:14:55.032Z,93595.95
2018-04-30T13:17:26.018Z,93584.67
2018-04-30T13:19:54.965Z,93578.08
2018-04-30T13:22:24.645Z,93601.36
2018-04-30T13:24:58.936Z,93588.84
2018-04-30T13:27:27.367Z,93578.82
2018-04-30T13:29:55.779Z,93593.06
2018-04-30T13:32:26.617Z,93588.61
2018-04-30T13:34:55.049Z,93588.70
2018-04-30T13:37:28.357Z,93600.16
2018-04-30T13:39:56.756Z,93582.67
2018-04-30T13:42:29.296Z,93587.21
2018-04-30T13:44:57.723Z,93582.41
2018-04-30T13:47:26.257Z,93573.67
2018-04-30T13:49:55.381Z,93576.17
2018-04-30T13:52:25.281Z,93578.03
2018-04-30T13:54:54.881Z,93582.84
2018-04-30T13:57:24.247Z,93593.00
2018-04-30T13:59:52.671Z,93564.23
2018-04-30T14:02:27.895Z,93572.62
2018-04-30T14:04:56.324Z,93564.56
2018-04-30T14:07:28.788Z,93569.97
2018-04-30T14:09:58.818Z,93584.27
2018-04-30T14:12:27.485Z,93581.73
2018-04-30T14:14:55.936Z,93588.84
2018-04-30T14:17:27.804Z,93603.11
2018-04-30T14:19:57.222Z,93613.63
2018-04-30T14:22:25.664Z,93610.34
2018-04-30T14:24:56.698Z,93601.20
2018-04-30T14:27:25.716Z,93610.12
2018-04-30T14:29:54.820Z,93619.66
2018-04-30T14:32:25.749Z,93633.04
2018-04-30T14:34:55.779Z,93630.72
2018-04-30T14:37:27.226Z,93632.84
2018-04-30T14:39:56.717Z,93624.86
2018-04-30T14:42:27.229Z,93625.77
2018-04-30T14:44:55.953Z,93621.37
2018-04-30T14:47:26.281Z,93616.16
2018-04-30T14:49:55.403Z,93612.44
2018-04-30T14:52:24.786Z,93607.58
2018-04-30T14:54:58.446Z,93608.27
2018-04-30T14:57:28.361Z,93613.23
2018-04-30T14:59:56.779Z,93603.19
2018-04-30T15:02:26.173Z,93610.04
2018-04-30T15:04:58.881Z,93605.80
2018-04-30T15:07:27.825Z,93603.77
2018-04-30T15:09:56.686Z,93602.80
2018-04-30T15:12:25.269Z,93610.77
2018-04-30T15:14:55.100Z,93600.97
2018-04-30T15:17:25.297Z,93620.70
2018-04-30T15:19:55.828Z,93606.81
2018-04-30T15:22:25.049Z,93604.23
2018-04-30T15:24:55.769Z,93604.27
2018-04-30T15:27:26.880Z,93602.98
2018-04-30T15:30:00.811Z,93608.56
2018-04-30T15:32:29.523Z,93613.34
2018-04-30T15:34:58.071Z,93599.13
2018-04-30T15:37:26.963Z,93601.19
2018-04-30T15:39:56.387Z,93618.66
2018-04-30T15:42:26.840Z,93606.97
2018-04-30T15:44:55.937Z,93602.63
2018-04-30T15:47:26.777Z,93594.70
2018-04-30T15:49:57.336Z,93590.27
2018-04-30T15:52:26.802Z,93594.48
2018-04-30T15:54:56.880Z,93604.31
2018-04-30T15:57:26.837Z,93611.58
2018-04-30T15:59:56.725Z,93619.63
2018-04-30T16:02:25.148Z,93615.84
2018-04-30T16:04:53.561Z,93623.98
2018-04-30T16:07:23.831Z,93631.02
2018-04-30T16:09:52.491Z,93622.92
2018-04-30T16:12:26.311Z,93617.31
2018-04-30T16:14:55.137Z,93616.08
2018-04-30T16:17:24.571Z,93619.41
2018-04-30T16:19:55.100Z,93633.69
2018-04-30T16:22:24.775Z,93644.57
2018-04-30T16:24:53.576Z,93664.86
2018-04-30T16:27:23.815Z,93702.66
2018-04-30T16:29:52.869Z,93692.23
2018-04-30T16:32:22.137Z,93701.31
2018-04-30T16:34:52.073Z,93705.42
2018-04-30T16:37:22.832Z,93700.22
2018-04-30T16:39:51.896Z,93720.23
2018-04-30T16:42:29.379Z,93729.20
2018-04-30T16:45:15.699Z,93726.45
2018-04-30T16:47:50.420Z,93715.63
2018-04-30T16:50:19.906Z,93703.14
2018-04-30T16:52:48.890Z,93696.92
2018-04-30T16:55:18.327Z,93692.11
2018-04-30T16:57:48.471Z,93681.42
2018-04-30T17:00:17.540Z,93688.90
2018-04-30T17:02:46.367Z,93689.17
2018-04-30T17:05:15.519Z,93688.31
2018-04-30T17:07:45.259Z,93696.20
2018-04-30T17:10:14.942Z,93685.72
2018-04-30T17:12:45.060Z,93694.84
2018-04-30T17:15:14.965Z,93689.91
2018-04-30T17:17:46.370Z,93683.79
2018-04-30T17:20:15.539Z,93677.17
2018-04-30T17:22:44.826Z,93688.15
2018-04-30T17:25:14.843Z,93677.70
2018-04-30T17:27:47.542Z,93684.41
2018-04-30T17:30:17.153Z,93686.02
2018-04-30T17:32:47.264Z,93684.56
2018-04-30T17:35:18.023Z,93683.77
2018-04-30T17:37:47.694Z,93685.69
2018-04-30T17:40:17.726Z,93696.17
2018-04-30T17:42:49.791Z,93688.84
2018-04-30T17:45:19.191Z,93685.52
2018-04-30T17:47:48.858Z,93684.46
2018-04-30T17:50:19.571Z,93679.19
2018-04-30T17:52:49.758Z,93686.14
2018-04-30T17:55:20.102Z,93684.28
2018-04-30T17:57:52.503Z,93681.92
2018-04-30T18:00:22.115Z,93671.51
2018-04-30T18:02:51.073Z,93671.71
2018-04-30T18:05:26.190Z,93660.59
2018-04-30T18:07:54.588Z,93661.48
2018-04-30T18:10:24.890Z,93649.75
2018-04-30T18:12:53.354Z,93658.63
2018-04-30T18:15:23.620Z,93658.16
2018-04-30T18:20:28.429Z,93647.63
2018-04-30T18:22:56.846Z,93645.50
2018-04-30T18:25:27.867Z,93654.73
2018-04-30T18:27:56.276Z,93635.50
2018-04-30T18:30:25.530Z,93645.88
2018-04-30T18:32:56.749Z,93644.73
2018-04-30T18:35:26.694Z,93648.21
2018-04-30T18:38:35.979Z,93644.56
2018-04-30T18:41:11.518Z,93640.92
2018-04-30T18:43:43.330Z,93637.56
2018-04-30T18:46:15.735Z,93638.96
2018-04-30T18:48:46.048Z,93638.36
2018-04-30T18:51:15.716Z,93631.30
2018-04-30T18:53:46.392Z,93630.72
2018-04-30T18:56:16.091Z,93629.07
2018-04-30T18:58:45.592Z,93641.20
2018-04-30T19:01:15.041Z,93637.16
2018-04-30T19:03:44.811Z,93640.36
2018-04-30T19:06:15.334Z,93635.25
2018-04-30T19:08:45.979Z,93630.75
2018-04-30T19:11:21.656Z,93635.28
2018-04-30T19:13:52.437Z,93641.77
2018-04-30T19:16:21.877Z,93633.88
2018-04-30T19:18:51.391Z,93625.14
2018-04-30T19:21:20.726Z,93628.33
2018-04-30T19:23:51.475Z,93644.22
2018-04-30T19:26:25.230Z,93635.56
2018-04-30T19:28:53.738Z,93624.94
2018-04-30T19:31:22.880Z,93631.19
2018-04-30T19:33:52.147Z,93639.22
2018-04-30T19:36:22.820Z,93622.88
2018-04-30T19:38:51.999Z,93615.01
2018-04-30T19:41:21.548Z,93612.98
2018-04-30T19:43:54.844Z,93608.20
2018-04-30T19:46:24.142Z,93618.24
2018-04-30T19:48:53.798Z,93619.66
2018-04-30T19:51:22.996Z,93629.51
2018-04-30T19:53:52.385Z,93614.39
2018-04-30T19:56:21.589Z,93613.20
2018-04-30T19:58:51.107Z,93617.58
2018-04-30T20:01:20.244Z,93616.34
2018-04-30T20:03:50.068Z,93610.42
2018-04-30T20:06:19.425Z,93603.02
2018-04-30T20:08:48.552Z,93598.28
2018-04-30T20:11:17.971Z,93590.80
2018-04-30T20:13:47.184Z,93591.73
2018-04-30T20:16:17.270Z,93585.50
2018-04-30T20:18:49.360Z,93593.45
2018-04-30T20:21:19.651Z,93588.44
2018-04-30T20:23:48.690Z,93593.88
2018-04-30T20:26:17.972Z,93577.51
2018-04-30T20:28:47.101Z,93586.72
2018-04-30T20:31:18.247Z,93591.48
2018-04-30T20:33:47.547Z,93590.28
2018-04-30T20:36:17.055Z,93597.24
2018-04-30T20:38:45.921Z,93594.17
2018-04-30T20:41:15.840Z,93604.28
2018-04-30T20:43:46.596Z,93606.13
2018-04-30T20:46:16.697Z,93597.55
2018-04-30T20:48:55.375Z,93598.66
2018-04-30T20:51:23.799Z,93589.31
2018-04-30T20:53:53.331Z,93605.84
2018-04-30T20:56:21.836Z,93610.55
2018-04-30T20:58:51.335Z,93609.19
2018-04-30T21:01:22.950Z,93612.77
2018-04-30T21:03:51.630Z,93615.48
2018-04-30T21:06:20.986Z,93612.64
2018-04-30T21:09:01.159Z,93625.27
2018-04-30T21:11:29.559Z,93624.44
2018-04-30T21:13:57.937Z,93633.88
2018-04-30T21:16:27.029Z,93593.00
2018-04-30T21:18:55.451Z,93607.09
2018-04-30T21:21:26.079Z,93605.36
2018-04-30T21:23:54.497Z,93630.59
2018-04-30T21:26:24.453Z,93612.41
2018-04-30T21:28:53.408Z,93610.44
2018-04-30T21:31:25.266Z,93603.66
2018-04-30T21:33:53.766Z,93612.80
2018-04-30T21:36:22.181Z,93625.53
2018-04-30T21:38:52.424Z,93613.31
2018-04-30T21:41:22.565Z,93620.14
2018-04-30T21:43:53.816Z,93609.13
2018-04-30T21:46:22.492Z,93619.36
2018-04-30T21:48:55.037Z,93619.66
2018-04-30T21:51:23.506Z,93612.33
2018-04-30T21:53:57.751Z,93625.59
2018-04-30T21:56:26.124Z,93608.66
2018-04-30T21:58:55.864Z,93603.64
2018-04-30T22:01:24.178Z,93617.39
2018-04-30T22:03:52.617Z,93607.44
2018-04-30T22:06:24.159Z,93596.36
2018-04-30T22:08:52.777Z,93587.47
2018-04-30T22:11:24.040Z,93605.80
2018-04-30T22:13:52.446Z,93604.89
2018-04-30T22:16:23.322Z,93611.81
2018-04-30T22:18:52.155Z,93575.33
2018-04-30T22:21:22.374Z,93586.49
2018-04-30T22:23:52.860Z,93594.25
2018-04-30T22:26:25.233Z,93587.41
2018-04-30T22:28:53.610Z,93590.69
2018-04-30T22:31:23.800Z,93601.39
2018-04-30T22:33:54.424Z,93594.00
2018-04-30T22:36:22.770Z,93592.63
2018-04-30T22:38:53.815Z,93595.84
2018-04-30T22:41:22.316Z,93596.61
2018-04-30T22:43:53.147Z,93601.47
2018-04-30T22:46:21.865Z,93608.14
2018-04-30T22:48:55.949Z,93630.38
2018-04-30T22:51:24.366Z,93609.19
2018-04-30T22:53:56.445Z,93650.77
2018-04-30T22:56:24.815Z,93651.63
2018-04-30T22:59:22.479Z,93657.84
2018-04-30T23:45:22.236Z,93690.75
2018-04-30T23:47:52.106Z,93699.73
2018-04-30T23:50:23.344Z,93690.66
2018-04-30T23:52:52.681Z,93682.43
2018-04-30T23:55:22.672Z,93699.36
2018-04-30T23:57:51.422Z,93705.90
